| time (UTC) | temp F | wind direction | speed MPH | gust MPH | rain 1hr in | rain 24hr in | rain mn in | humidity % | barometer mb |
| 20260903233603 | 57 | 207 | 5.0 | 16.0 | 0.07 | 0.36 | 0.18 | 95 | 1002.5 |
| 20260903233103 | 57 | 300 | 8.0 | 16.0 | 0.08 | 0.36 | 0.18 | 95 | 1002.3 |
| 20260903230604 | 58 | 195 | 5.0 | 10.0 | 0.16 | 0.35 | 0.17 | 96 | 1002.5 |
| 20260903221603 | 57 | 0 | 0.0 | 0.0 | 0.17 | 0.23 | 0.05 | 95 | 1002.9 |
| 20260903220603 | 58 | 0 | 0.0 | 1.0 | 0.13 | 0.19 | 0.01 | 95 | 1002.8 |
| 20260903214603 | 58 | 0 | 0.0 | 2.0 | 0.00 | 0.13 | 0.06 | 95 | 1003.0 |
| 20260903214102 | 58 | 0 | 0.0 | 2.0 | 0.00 | 0.13 | 0.06 | 95 | 1003.0 |
| 20260903213604 | 58 | 66 | 1.0 | 2.0 | 0.00 | 0.13 | 0.06 | 95 | 1003.0 |
| 20260903213103 | 58 | 0 | 0.0 | 2.0 | 0.00 | 0.13 | 0.06 | 95 | 1003.1 |
| 20260903211603 | 58 | 119 | 0.0 | 2.0 | 0.00 | 0.13 | 0.06 | 95 | 1003.2 |
| 20260903210114 | 58 | 118 | 1.0 | 2.0 | 0.00 | 0.13 | 0.06 | 95 | 1003.4 |
| 20260903204603 | 58 | 0 | 0.0 | 1.0 | 0.00 | 0.13 | 0.06 | 95 | 1003.7 |
| 20260903204103 | 58 | 0 | 0.0 | 1.0 | 0.00 | 0.13 | 0.06 | 95 | 1003.7 |
| 20260903203103 | 57 | 0 | 0.0 | 0.0 | 0.00 | 0.13 | 0.06 | 95 | 1003.8 |
| 20260903201603 | 57 | 0 | 0.0 | 0.0 | 0.00 | 0.13 | 0.06 | 95 | 1003.8 |
| 20260903200603 | 58 | 0 | 0.0 | 2.0 | 0.00 | 0.13 | 0.06 | 95 | 1003.7 |
| 20260903200114 | 58 | 0 | 0.0 | 2.0 | 0.00 | 0.13 | 0.06 | 95 | 1003.7 |
| 20260903191604 | 57 | 0 | 0.0 | 2.0 | 0.00 | 0.13 | 0.06 | 95 | 1004.3 |
| 20260903184603 | 57 | 42 | 1.0 | 2.0 | 0.01 | 0.13 | 0.06 | 94 | 1004.3 |
| 20260903184103 | 57 | 33 | 1.0 | 2.0 | 0.01 | 0.13 | 0.06 | 94 | 1004.4 |
| 20260903183603 | 57 | 45 | 1.0 | 3.0 | 0.01 | 0.13 | 0.06 | 94 | 1004.3 |
| 20260903181103 | 58 | 54 | 2.0 | 2.0 | 0.01 | 0.13 | 0.06 | 94 | 1004.5 |
| 20260903180602 | 58 | 46 | 1.0 | 2.0 | 0.01 | 0.13 | 0.06 | 94 | 1004.5 |
| 20260903180114 | 58 | 38 | 2.0 | 2.0 | 0.00 | 0.12 | 0.05 | 94 | 1004.5 |
| 20260903174603 | 58 | 61 | 1.0 | 2.0 | 0.00 | 0.12 | 0.05 | 93 | 1004.6 |
| 20260903174103 | 58 | 32 | 1.0 | 2.0 | 0.00 | 0.12 | 0.05 | 93 | 1004.6 |
| 20260903173603 | 58 | 30 | 1.0 | 3.0 | 0.00 | 0.12 | 0.05 | 93 | 1004.7 |
| 20260903173103 | 58 | 28 | 2.0 | 3.0 | 0.00 | 0.12 | 0.05 | 93 | 1004.5 |
| 20260903171603 | 58 | 39 | 1.0 | 2.0 | 0.00 | 0.12 | 0.05 | 93 | 1004.5 |
| 20260903170603 | 59 | 68 | 0.0 | 2.0 | 0.00 | 0.12 | 0.05 | 93 | 1004.6 |
| 20260903170115 | 59 | 72 | 1.0 | 2.0 | 0.00 | 0.12 | 0.05 | 93 | 1004.8 |
| 20260903164603 | 59 | 71 | 1.0 | 2.0 | 0.01 | 0.12 | 0.05 | 92 | 1004.9 |
| 20260903161603 | 59 | 110 | 1.0 | 2.0 | 0.05 | 0.12 | 0.05 | 92 | 1005.0 |
| 20260903161103 | 59 | 0 | 0.0 | 2.0 | 0.05 | 0.12 | 0.05 | 92 | 1005.1 |
| 20260903160115 | 59 | 0 | 0.0 | 2.0 | 0.05 | 0.12 | 0.05 | 91 | 1005.2 |
| 20260903154103 | 59 | 107 | 1.0 | 2.0 | 0.03 | 0.10 | 0.03 | 90 | 1005.4 |
| 20260903153603 | 59 | 123 | 1.0 | 2.0 | 0.02 | 0.09 | 0.02 | 90 | 1005.4 |
| 20260903153103 | 60 | 149 | 1.0 | 2.0 | 0.02 | 0.09 | 0.02 | 90 | 1005.5 |
| 20260903150115 | 60 | 139 | 2.0 | 2.0 | 0.00 | 0.07 | 0.00 | 87 | 1005.8 |
| 20260903144603 | 61 | 0 | 0.0 | 6.0 | 0.00 | 0.07 | 0.00 | 85 | 1006.0 |
| 20260903144104 | 61 | 151 | 1.0 | 6.0 | 0.00 | 0.07 | 0.00 | 84 | 1006.1 |
| 20260903143103 | 61 | 172 | 1.0 | 8.0 | 0.00 | 0.07 | 0.00 | 82 | 1006.2 |
| 20260903140603 | 61 | 169 | 5.0 | 6.0 | 0.00 | 0.07 | 0.00 | 81 | 1006.5 |
| 20260903134103 | 61 | 138 | 6.0 | 5.0 | 0.00 | 0.07 | 0.00 | 80 | 1006.7 |
| 20260903133103 | 61 | 216 | 3.0 | 6.0 | 0.00 | 0.07 | 0.00 | 79 | 1006.8 |
| 20260903131603 | 62 | 221 | 2.0 | 6.0 | 0.00 | 0.07 | 0.00 | 78 | 1006.9 |
| 20260903131103 | 62 | 208 | 5.0 | 6.0 | 0.00 | 0.07 | 0.00 | 78 | 1006.9 |
| 20260903130603 | 62 | 254 | 3.0 | 8.0 | 0.00 | 0.07 | 0.00 | 78 | 1007.0 |
| 20260903124603 | 61 | 229 | 1.0 | 7.0 | 0.00 | 0.07 | 0.00 | 78 | 1007.0 |
| 20260903120603 | 61 | 247 | 1.0 | 7.0 | 0.00 | 0.07 | 0.00 | 79 | 1007.5 |
| 20260903120115 | 61 | 137 | 2.0 | 7.0 | 0.00 | 0.07 | 0.00 | 79 | 1007.6 |
| 20260903114603 | 61 | 234 | 3.0 | 5.0 | 0.00 | 0.07 | 0.00 | 78 | 1007.8 |
| 20260903114103 | 61 | 193 | 6.0 | 5.0 | 0.00 | 0.07 | 0.00 | 78 | 1007.9 |
| 20260903113603 | 61 | 198 | 3.0 | 7.0 | 0.00 | 0.07 | 0.00 | 77 | 1007.9 |
| 20260903111604 | 61 | 220 | 3.0 | 8.0 | 0.00 | 0.07 | 0.00 | 73 | 1008.2 |
| 20260903111103 | 61 | 204 | 3.0 | 8.0 | 0.00 | 0.07 | 0.00 | 73 | 1008.2 |
| 20260903110603 | 61 | 199 | 3.0 | 8.0 | 0.00 | 0.07 | 0.00 | 73 | 1008.3 |
| 20260903104603 | 61 | 159 | 2.0 | 7.0 | 0.00 | 0.07 | 0.00 | 73 | 1008.6 |
| 20260903104104 | 61 | 176 | 3.0 | 6.0 | 0.00 | 0.07 | 0.00 | 74 | 1008.5 |
| 20260903101103 | 59 | 188 | 1.0 | 7.0 | 0.00 | 0.07 | 0.00 | 76 | 1008.7 |
| 20260903100115 | 59 | 205 | 7.0 | 12.0 | 0.00 | 0.07 | 0.00 | 78 | 1008.9 |
| 20260903094604 | 59 | 242 | 9.0 | 12.0 | 0.00 | 0.07 | 0.00 | 78 | 1009.1 |
| 20260903094103 | 59 | 223 | 3.0 | 9.0 | 0.00 | 0.07 | 0.00 | 78 | 1009.0 |
| 20260903093603 | 59 | 202 | 2.0 | 9.0 | 0.00 | 0.07 | 0.00 | 78 | 1008.9 |
| 20260903093104 | 59 | 223 | 2.0 | 10.0 | 0.00 | 0.07 | 0.00 | 78 | 1008.9 |
| 20260903090603 | 58 | 195 | 5.0 | 9.0 | 0.00 | 0.07 | 0.00 | 76 | 1009.2 |
| 20260903090115 | 58 | 218 | 2.0 | 9.0 | 0.00 | 0.07 | 0.00 | 76 | 1009.2 |
| 20260903084104 | 58 | 290 | 8.0 | 13.0 | 0.00 | 0.07 | 0.00 | 75 | 1009.4 |
| 20260903083604 | 58 | 261 | 3.0 | 10.0 | 0.00 | 0.07 | 0.00 | 75 | 1009.4 |
| 20260903081603 | 59 | 250 | 9.0 | 12.0 | 0.00 | 0.07 | 0.00 | 74 | 1009.5 |
| 20260903074603 | 58 | 188 | 9.0 | 13.0 | 0.00 | 0.07 | 0.00 | 73 | 1009.5 |
| 20260903073603 | 58 | 280 | 10.0 | 13.0 | 0.00 | 0.07 | 0.00 | 72 | 1009.5 |
| 20260903073104 | 58 | 139 | 3.0 | 12.0 | 0.00 | 0.07 | 0.00 | 73 | 1009.5 |
| 20260903071603 | 58 | 220 | 6.0 | 7.0 | 0.00 | 0.07 | 0.00 | 75 | 1009.6 |
| 20260903070603 | 57 | 250 | 5.0 | 12.0 | 0.00 | 0.07 | 0.00 | 76 | 1009.7 |
| 20260903064103 | 56 | 234 | 2.0 | 7.0 | 0.00 | 0.07 | 0.00 | 77 | 1009.6 |
| 20260903054603 | 54 | 220 | 1.0 | 6.0 | 0.00 | 0.07 | 0.00 | 77 | 1010.0 |
| 20260903044104 | 53 | 197 | 2.0 | 6.0 | 0.00 | 0.07 | 0.00 | 76 | 1010.2 |
| 20260903043603 | 53 | 207 | 1.0 | 6.0 | 0.00 | 0.07 | 0.00 | 76 | 1010.2 |
| 20260903043104 | 53 | 286 | 1.0 | 8.0 | 0.00 | 0.07 | 0.00 | 76 | 1010.3 |
| 20260903041603 | 53 | 232 | 1.0 | 8.0 | 0.00 | 0.07 | 0.00 | 75 | 1010.3 |
| 20260903040604 | 53 | 205 | 3.0 | 7.0 | 0.00 | 0.09 | 0.00 | 74 | 1010.4 |
| 20260903040115 | 53 | 251 | 2.0 | 7.0 | 0.00 | 0.09 | 0.00 | 74 | 1010.4 |
| 20260903034104 | 53 | 212 | 3.0 | 10.0 | 0.00 | 0.09 | 0.00 | 74 | 1010.5 |
| 20260903030603 | 53 | 228 | 1.0 | 8.0 | 0.00 | 0.09 | 0.00 | 72 | 1010.6 |
| 20260903024603 | 53 | 215 | 9.0 | 6.0 | 0.00 | 0.10 | 0.00 | 72 | 1010.7 |
| 20260903024103 | 53 | 228 | 2.0 | 6.0 | 0.00 | 0.13 | 0.00 | 72 | 1010.8 |
| 20260903023603 | 54 | 263 | 2.0 | 8.0 | 0.00 | 0.13 | 0.00 | 73 | 1010.7 |
| 20260903023104 | 54 | 227 | 2.0 | 14.0 | 0.00 | 0.14 | 0.00 | 73 | 1010.7 |
| 20260903021104 | 54 | 264 | 2.0 | 12.0 | 0.00 | 0.14 | 0.00 | 73 | 1010.8 |
| 20260903020603 | 54 | 246 | 2.0 | 9.0 | 0.00 | 0.14 | 0.00 | 72 | 1010.8 |
| 20260903020115 | 55 | 273 | 1.0 | 12.0 | 0.00 | 0.14 | 0.00 | 72 | 1010.9 |
| 20260903014104 | 55 | 300 | 2.0 | 10.0 | 0.00 | 0.14 | 0.00 | 72 | 1011.0 |
| 20260903011604 | 55 | 235 | 3.0 | 9.0 | 0.00 | 0.14 | 0.00 | 72 | 1011.0 |
| 20260903011105 | 55 | 256 | 2.0 | 5.0 | 0.00 | 0.14 | 0.00 | 72 | 1011.0 |
| 20260903003603 | 55 | 262 | 9.0 | 14.0 | 0.00 | 0.14 | 0.00 | 70 | 1011.1 |
| 20260903003104 | 55 | 245 | 8.0 | 14.0 | 0.00 | 0.14 | 0.00 | 70 | 1011.2 |
| 20260903001103 | 55 | 282 | 3.0 | 13.0 | 0.00 | 0.14 | 0.00 | 70 | 1011.2 |
| 20260903000604 | 55 | 264 | 8.0 | 13.0 | 0.00 | 0.14 | 0.00 | 70 | 1011.1 |
| 20260903000115 | 55 | 244 | 2.0 | 14.0 | 0.00 | 0.14 | 0.00 | 70 | 1011.2 |